Time;durP1;ratioP1;P1;durP2;ratioP2;P2;SDS_P1;SDS_P2;PMS_P1;PMS_P2;Temp;Humidity;BMP_temperature;BMP_pressure;BME280_temperature;BME280_humidity;BME280_pressure;Samples;Min_cycle;Max_cycle;Signal;HPM_P1;HPM_P2
2021/12/25 07:59:53;;;;;;;11.68;10.43;;;;;;;2.06;86.74;100600.28;5322499;27;20424;-66
2021/12/25 08:02:25;;;;;;;10.35;9.27;;;;;;;2.15;87.57;100604.34;5321531;28;20028;-67
2021/12/25 08:04:56;;;;;;;12.07;9.85;;;;;;;2.21;86.57;100603.38;5320896;28;20163;-67
2021/12/25 08:07:28;;;;;;;10.75;9.65;;;;;;;2.30;87.27;100609.28;5322241;28;20440;-67
2021/12/25 08:10:12;;;;;;;9.85;8.90;;;;;;;2.27;86.39;100612.50;5307745;28;20065;-68
2021/12/25 08:12:50;;;;;;;10.73;7.95;;;;;;;2.36;86.00;100614.66;5307269;28;20028;-67
2021/12/25 08:15:24;;;;;;;9.43;8.52;;;;;;;2.35;85.16;100623.94;5322496;28;20077;-67
2021/12/25 08:17:57;;;;;;;11.55;9.75;;;;;;;2.25;85.63;100625.59;5316425;28;20037;-67
2021/12/25 08:20:30;;;;;;;9.85;8.55;;;;;;;2.49;85.27;100623.66;5313124;28;20029;-67
2021/12/25 08:23:01;;;;;;;9.20;8.30;;;;;;;2.20;84.61;100636.44;5300422;28;20047;-67
2021/12/25 08:25:33;;;;;;;10.07;9.05;;;;;;;2.07;86.00;100627.44;5300686;28;20020;-67
2021/12/25 08:28:05;;;;;;;9.02;8.13;;;;;;;1.94;87.03;100642.19;5300803;28;20016;-66
2021/12/25 08:30:36;;;;;;;9.10;8.13;;;;;;;1.97;85.69;100635.41;5299274;28;20460;-67
2021/12/25 08:33:08;;;;;;;9.95;8.95;;;;;;;2.10;85.87;100648.81;5300951;28;20043;-66
2021/12/25 08:35:39;;;;;;;9.02;7.72;;;;;;;2.08;86.10;100637.28;5300542;28;20026;-68
2021/12/25 08:38:11;;;;;;;8.70;7.80;;;;;;;1.85;85.34;100643.59;5299757;28;20535;-67
2021/12/25 08:40:43;;;;;;;9.68;7.95;;;;;;;2.07;86.07;100645.72;5300754;28;20055;-67
2021/12/25 08:43:16;;;;;;;9.52;8.52;;;;;;;1.93;84.79;100650.59;5300477;28;20523;-67
2021/12/25 08:46:00;;;;;;;8.85;7.95;;;;;;;2.36;85.07;100655.69;5303186;28;20510;-67
2021/12/25 08:48:31;;;;;;;8.75;7.95;;;;;;;2.09;84.73;100655.34;5312137;28;20036;-67
2021/12/25 08:51:03;;;;;;;9.73;8.13;;;;;;;2.06;83.64;100657.75;5300664;28;20020;-67
2021/12/25 08:53:34;;;;;;;8.75;7.95;;;;;;;2.18;84.31;100664.06;5298921;28;20107;-68
2021/12/25 08:56:05;;;;;;;9.00;8.10;;;;;;;2.21;83.60;100668.22;5300376;28;20069;-67
2021/12/25 08:58:37;;;;;;;8.60;7.70;;;;;;;2.15;83.20;100662.63;5309997;28;20071;-66
2021/12/25 09:01:11;;;;;;;8.45;7.65;;;;;;;1.88;83.44;100664.16;5321599;28;20517;-67
2021/12/25 09:03:43;;;;;;;8.52;7.78;;;;;;;1.92;83.79;100679.88;5321509;28;20024;-67
2021/12/25 09:06:14;;;;;;;8.68;7.78;;;;;;;1.84;84.48;100673.88;5320864;28;20031;-66
2021/12/25 09:08:46;;;;;;;8.77;7.88;;;;;;;1.86;84.43;100678.06;5321416;28;20107;-67
2021/12/25 09:11:18;;;;;;;8.23;7.43;;;;;;;2.01;83.87;100672.13;5310349;28;20024;-67
2021/12/25 09:13:49;;;;;;;9.40;8.50;;;;;;;2.16;83.73;100674.41;5306104;28;20039;-67
2021/12/25 09:16:20;;;;;;;9.02;8.07;;;;;;;2.01;84.10;100677.59;5306745;28;20442;-67
2021/12/25 09:18:51;;;;;;;9.00;7.63;;;;;;;1.92;83.42;100676.31;5306636;28;20105;-67
2021/12/25 09:21:23;;;;;;;8.85;8.05;;;;;;;1.95;83.33;100681.28;5305448;28;20042;-67
2021/12/25 09:23:54;;;;;;;8.38;7.45;;;;;;;2.11;83.57;100688.78;5306936;28;20028;-67
2021/12/25 09:26:26;;;;;;;8.65;7.85;;;;;;;1.86;82.95;100689.00;5306308;28;20035;-67
2021/12/25 09:29:01;;;;;;;8.40;7.68;;;;;;;1.98;83.34;100682.72;5311501;28;20028;-66
2021/12/25 09:31:32;;;;;;;8.32;7.63;;;;;;;1.82;83.73;100684.25;5307002;28;20103;-67
2021/12/25 09:34:03;;;;;;;8.05;7.35;;;;;;;1.94;83.64;100676.88;5305873;28;20531;-67
2021/12/25 09:36:35;;;;;;;9.38;8.52;;;;;;;1.86;82.74;100679.97;5305948;28;20028;-67
2021/12/25 09:39:07;;;;;;;9.38;8.48;;;;;;;2.01;83.29;100680.34;5309886;28;20555;-67
2021/12/25 09:41:39;;;;;;;7.85;7.15;;;;;;;2.00;82.78;100684.16;5305863;28;20016;-66
2021/12/25 09:44:10;;;;;;;7.78;7.07;;;;;;;1.86;83.28;100682.69;5306385;28;20028;-66
2021/12/25 09:46:42;;;;;;;8.40;7.60;;;;;;;1.91;82.47;100693.75;5290692;28;20086;-67
2021/12/25 09:49:19;;;;;;;8.45;7.65;;;;;;;1.78;82.55;100694.00;5284627;28;20023;-67
2021/12/25 09:51:51;;;;;;;7.80;7.07;;;;;;;1.82;83.05;100697.94;5284922;28;20036;-66
2021/12/25 09:54:22;;;;;;;8.05;7.35;;;;;;;1.76;82.85;100701.59;5292811;28;20371;-66
2021/12/25 09:56:56;;;;;;;9.93;7.43;;;;;;;2.06;82.72;100710.53;5288333;28;20024;-66
2021/12/25 09:59:27;;;;;;;8.82;7.95;;;;;;;1.98;81.52;100712.81;5287046;28;20048;-66
2021/12/25 10:02:01;;;;;;;7.57;6.88;;;;;;;1.77;82.44;100720.50;5313195;28;20085;-67
2021/12/25 10:04:36;;;;;;;8.23;7.53;;;;;;;1.87;83.53;100725.41;5301594;28;20016;-67
2021/12/25 10:07:11;;;;;;;;;;;;;;;2.05;82.16;100724.47;5306517;28;20036;-67
2021/12/25 10:09:54;;;;;;;9.52;7.50;;;;;;;1.89;81.95;100731.44;5305193;28;19911;-67
2021/12/25 10:12:30;;;;;;;8.38;7.65;;;;;;;1.79;81.61;100732.03;5304855;28;20058;-67
2021/12/25 10:15:02;;;;;;;8.07;7.28;;;;;;;1.92;81.28;100722.78;5305667;28;20035;-67
2021/12/25 10:17:34;;;;;;;8.60;7.80;;;;;;;2.06;81.39;100726.97;5304836;28;20028;-67
2021/12/25 10:20:09;;;;;;;8.30;7.47;;;;;;;2.00;81.03;100733.38;5306832;28;20024;-67
2021/12/25 10:22:57;;;;;;;7.93;7.13;;;;;;;2.13;82.57;100732.34;5303871;28;20036;-67
2021/12/25 10:25:35;;;;;;;10.00;8.10;;;;;;;2.26;81.21;100732.09;5306271;28;20047;-67
2021/12/25 10:28:08;;;;;;;9.07;8.18;;;;;;;2.43;80.56;100736.84;5298113;28;20024;-67
2021/12/25 10:30:54;;;;;;;9.18;7.75;;;;;;;2.53;80.04;100735.19;5313487;28;20082;-67
2021/12/25 10:33:39;;;;;;;9.23;7.47;;;;;;;2.26;80.14;100728.53;5321875;28;20028;-68
2021/12/25 10:36:33;;;;;;;8.35;7.55;;;;;;;2.22;80.56;100724.59;5305255;28;20024;-67
2021/12/25 10:39:12;;;;;;;7.90;7.20;;;;;;;2.21;81.27;100731.16;5310741;28;20035;-68
2021/12/25 10:41:57;;;;;;;8.18;7.47;;;;;;;2.04;80.71;100728.25;5324462;28;20429;-67
2021/12/25 10:44:36;;;;;;;11.17;7.90;;;;;;;2.00;81.51;100732.56;5324350;28;20034;-67
2021/12/25 10:47:13;;;;;;;9.13;8.32;;;;;;;1.66;82.10;100726.75;5303886;28;20055;-67
2021/12/25 10:49:48;;;;;;;8.63;7.28;;;;;;;1.51;81.47;100728.03;5305141;28;20024;-67
2021/12/25 10:52:26;;;;;;;7.07;6.45;;;;;;;1.73;80.68;100731.06;5304125;28;20387;-67
2021/12/25 10:55:22;;;;;;;7.00;6.30;;;;;;;1.97;81.49;100725.66;5305037;28;20050;-67
2021/12/25 10:57:59;;;;;;;8.18;7.38;;;;;;;1.94;81.14;100726.97;5304129;28;20083;-67
2021/12/25 11:00:33;;;;;;;7.57;6.88;;;;;;;1.87;80.63;100718.03;5306136;28;20016;-67
2021/12/25 11:03:09;;;;;;;8.52;7.82;;;;;;;1.95;80.80;100720.41;5310537;28;20107;-68
2021/12/25 11:05:47;;;;;;;8.35;7.57;;;;;;;1.98;80.40;100724.56;5304090;28;20020;-67
2021/12/25 11:08:23;;;;;;;7.68;6.97;;;;;;;2.16;80.11;100716.25;5304818;28;20036;-66
2021/12/25 11:10:57;;;;;;;7.20;6.50;;;;;;;2.14;79.23;100718.41;5304501;28;20031;-66
2021/12/25 11:13:50;;;;;;;9.05;6.57;;;;;;;2.24;79.61;100727.94;5303233;28;20024;-67
2021/12/25 11:19:11;;;;;;;;;;;;;;;2.20;78.90;100740.41;5317884;28;20078;-67
2021/12/25 11:21:51;;;;;;;7.18;6.13;;;;;;;2.06;78.05;100732.44;5304532;28;19911;-67
2021/12/25 11:24:25;;;;;;;6.38;5.50;;;;;;;2.07;78.05;100734.13;5304383;28;20032;-67
2021/12/25 11:27:00;;;;;;;5.70;5.20;;;;;;;2.05;78.26;100735.41;5304354;28;20077;-67
2021/12/25 11:29:35;;;;;;;5.53;4.90;;;;;;;2.16;77.32;100738.16;5288215;28;20150;-67
2021/12/25 11:32:12;;;;;;;6.25;5.72;;;;;;;2.16;77.39;100727.22;5302638;28;20541;-67
2021/12/25 11:34:43;;;;;;;10.05;6.32;;;;;;;2.09;76.96;100725.66;5303728;28;20405;-66
2021/12/25 11:37:16;;;;;;;7.70;6.82;;;;;;;2.07;78.43;100716.84;5303361;28;20067;-67
2021/12/25 11:39:52;;;;;;;6.70;5.75;;;;;;;1.99;76.86;100715.28;5304344;28;20468;-68
2021/12/25 11:42:25;;;;;;;5.78;5.15;;;;;;;2.24;78.09;100706.03;5323886;28;20050;-67
2021/12/25 11:45:11;;;;;;;8.45;5.35;;;;;;;2.18;77.13;100708.66;5325558;28;20019;-67
2021/12/25 11:47:45;;;;;;;7.10;4.72;;;;;;;2.21;76.67;100712.00;5322607;28;20030;-67
2021/12/25 11:50:31;;;;;;;5.13;4.63;;;;;;;2.37;77.81;100716.75;5322857;28;20098;-67
2021/12/25 11:53:40;;;;;;;4.72;3.58;;;;;;;2.38;75.95;100724.72;5317598;28;20040;-68
2021/12/25 11:59:19;;;;;;;4.63;4.10;;;;;;;2.37;76.57;100722.22;5303322;28;20104;-67
2021/12/25 12:01:52;;;;;;;4.30;3.90;;;;;;;2.22;75.74;100714.47;5303088;28;20024;-68
2021/12/25 12:04:25;;;;;;;6.47;4.25;;;;;;;2.24;75.51;100712.34;5304046;28;20058;-68
2021/12/25 12:06:58;;;;;;;5.13;3.80;;;;;;;2.05;75.28;100711.63;5303935;28;20497;-67
2021/12/25 12:09:51;;;;;;;5.32;3.75;;;;;;;2.23;76.22;100712.59;5302934;28;20039;-68
2021/12/25 12:12:25;;;;;;;4.85;3.83;;;;;;;2.30;76.07;100710.56;5294533;28;20368;-68
2021/12/25 12:15:15;;;;;;;4.43;3.40;;;;;;;2.29;76.23;100715.19;5303860;28;20488;-68
2021/12/25 12:17:47;;;;;;;4.53;4.03;;;;;;;2.50;75.19;100711.00;5306781;28;20061;-68
2021/12/25 12:20:41;;;;;;;4.78;3.50;;;;;;;2.50;75.65;100711.00;5325319;28;20019;-67
2021/12/25 12:23:46;;;;;;;3.67;3.33;;;;;;;2.44;75.09;100714.72;5315813;28;20452;-67
2021/12/25 12:26:45;;;;;;;3.38;3.08;;;;;;;2.31;75.18;100696.63;5300183;28;20094;-67
2021/12/25 12:29:52;;;;;;;3.92;3.47;;;;;;;2.47;75.92;100692.34;5305610;28;20027;-68
2021/12/25 12:32:44;;;;;;;3.83;3.53;;;;;;;2.54;77.57;100690.31;5239246;28;20043;-67
2021/12/25 12:35:37;;;;;;;3.92;3.53;;;;;;;2.61;75.83;100688.28;5293459;28;20107;-67
2021/12/25 12:38:40;;;;;;;3.85;3.28;;;;;;;2.56;76.62;100682.69;5302432;28;20036;-67
2021/12/25 12:41:32;;;;;;;5.32;3.30;;;;;;;2.71;76.01;100673.97;5303525;28;20472;-68
2021/12/25 12:44:37;;;;;;;3.30;3.05;;;;;;;2.63;75.20;100679.81;5301757;28;20078;-68
2021/12/25 12:47:15;;;;;;;6.32;3.20;;;;;;;2.71;74.71;100684.94;5288381;28;20044;-69
2021/12/25 12:49:54;;;;;;;3.42;3.13;;;;;;;2.65;75.61;100685.06;5308386;28;20126;-68
2021/12/25 12:52:40;;;;;;;7.18;4.40;;;;;;;2.56;74.72;100682.69;5317441;28;20023;-68
2021/12/25 12:55:28;;;;;;;;;;;;;;;2.77;74.91;100692.16;5308472;28;20077;-67
2021/12/25 12:58:21;;;;;;;4.53;3.53;;;;;;;2.51;75.17;100685.31;5306375;28;19919;-67
2021/12/25 13:00:58;;;;;;;3.58;3.28;;;;;;;2.58;74.63;100687.91;5306621;28;20024;-67
2021/12/25 13:03:30;;;;;;;4.15;3.40;;;;;;;2.67;73.76;100688.41;5321433;28;20038;-67
2021/12/25 13:06:04;;;;;;;3.60;3.03;;;;;;;2.65;73.80;100696.00;5306655;28;20028;-68
2021/12/25 13:08:37;;;;;;;3.75;3.30;;;;;;;2.55;74.29;100697.44;5287929;28;20031;-67
2021/12/25 13:11:19;;;;;;;3.90;3.50;;;;;;;2.62;74.40;100700.06;5285826;28;20440;-67
2021/12/25 13:13:54;;;;;;;3.95;2.83;;;;;;;2.79;73.49;100706.47;5284767;28;20472;-68
2021/12/25 13:16:35;;;;;;;3.70;3.20;;;;;;;2.92;73.82;100708.09;5285778;28;20031;-68
2021/12/25 13:19:07;;;;;;;3.53;3.17;;;;;;;2.96;73.06;100712.00;5298429;28;20344;-67
2021/12/25 13:21:39;;;;;;;4.57;2.72;;;;;;;2.88;73.24;100712.38;5322653;28;20106;-67
2021/12/25 13:24:14;;;;;;;3.67;2.90;;;;;;;3.00;73.09;100709.63;5307022;28;20028;-67
2021/12/25 13:26:50;;;;;;;3.85;3.30;;;;;;;3.19;71.58;100715.75;5302793;28;20056;-67
2021/12/25 13:29:23;;;;;;;4.22;3.00;;;;;;;3.24;71.22;100719.41;5285673;28;20017;-67
2021/12/25 13:31:54;;;;;;;4.47;3.10;;;;;;;3.34;71.50;100710.56;5305457;28;20028;-67
2021/12/25 13:34:26;;;;;;;5.43;3.28;;;;;;;3.33;70.87;100714.41;5319040;28;20046;-67
2021/12/25 13:36:58;;;;;;;3.95;3.03;;;;;;;3.36;69.87;100715.81;5305826;28;20027;-67
2021/12/25 13:39:32;;;;;;;3.28;2.97;;;;;;;3.21;69.64;100713.59;5327175;28;20462;-67
2021/12/25 13:42:11;;;;;;;3.78;2.58;;;;;;;3.05;70.00;100707.00;5311848;28;20062;-68
2021/12/25 13:44:46;;;;;;;3.60;2.80;;;;;;;3.37;70.17;100711.97;5305984;28;20031;-68
2021/12/25 13:47:26;;;;;;;3.78;2.80;;;;;;;3.56;69.66;100704.41;5311358;28;20352;-68
2021/12/25 13:50:03;;;;;;;2.90;2.55;;;;;;;3.57;70.95;100703.31;5327653;28;20077;-66
2021/12/25 13:52:40;;;;;;;3.28;2.67;;;;;;;3.66;69.65;100701.84;5316021;28;20153;-67
2021/12/25 13:55:23;;;;;;;2.90;2.60;;;;;;;3.65;69.60;100694.66;5305115;28;20111;-67
2021/12/25 13:58:09;;;;;;;4.03;2.60;;;;;;;3.74;68.81;100695.94;5306041;28;20055;-67
2021/12/25 14:00:50;;;;;;;3.13;2.83;;;;;;;3.80;69.05;100702.34;5305206;28;20065;-67
2021/12/25 14:03:24;;;;;;;3.28;2.70;;;;;;;3.63;68.42;100697.69;5305736;28;20020;-67
2021/12/25 14:05:55;;;;;;;4.43;2.63;;;;;;;3.55;69.11;100708.19;5325520;28;20035;-67
2021/12/25 14:08:27;;;;;;;3.53;2.80;;;;;;;3.57;68.57;100706.88;5325625;28;20023;-68
2021/12/25 14:11:01;;;;;;;4.18;3.20;;;;;;;3.44;69.32;100708.00;5309030;28;20025;-68
2021/12/25 14:13:35;;;;;;;5.10;3.20;;;;;;;3.32;69.18;100707.22;5300648;28;20024;-67
2021/12/25 14:16:06;;;;;;;2.85;2.60;;;;;;;3.28;69.71;100706.06;5299677;28;20483;-68
2021/12/25 14:18:39;;;;;;;3.20;2.90;;;;;;;3.10;69.92;100698.03;5284488;28;20028;-67
2021/12/25 14:21:21;;;;;;;6.25;3.85;;;;;;;3.16;70.01;100708.03;5293665;28;20034;-67
2021/12/25 14:24:01;;;;;;;4.68;3.92;;;;;;;2.94;69.92;100708.69;5322698;28;20046;-67
2021/12/25 14:26:33;;;;;;;3.70;3.40;;;;;;;2.73;71.15;100704.66;5295229;28;20042;-67
2021/12/25 14:29:19;;;;;;;3.35;3.05;;;;;;;2.87;70.25;100708.00;5304524;28;20020;-68
2021/12/25 14:31:50;;;;;;;3.10;2.80;;;;;;;2.78;70.53;100702.03;5305817;28;20036;-68
2021/12/25 14:34:35;;;;;;;3.10;2.80;;;;;;;2.78;70.61;100709.44;5295727;28;20042;-67
2021/12/25 14:37:07;;;;;;;5.53;3.92;;;;;;;2.71;70.44;100717.81;5299818;28;20044;-67
2021/12/25 14:39:38;;;;;;;5.82;3.22;;;;;;;2.90;70.72;100723.94;5283933;28;20403;-67
2021/12/25 14:42:09;;;;;;;3.25;2.60;;;;;;;2.99;69.06;100730.72;5294426;28;20379;-65
2021/12/25 14:44:40;;;;;;;3.00;2.33;;;;;;;2.84;68.58;100730.41;5303502;28;20052;-67
2021/12/25 14:47:17;;;;;;;3.95;2.33;;;;;;;2.96;69.50;100733.91;5304918;28;20455;-67
2021/12/25 14:49:49;;;;;;;3.40;2.70;;;;;;;2.85;69.10;100734.78;5304866;28;20063;-69
2021/12/25 14:52:22;;;;;;;3.17;2.88;;;;;;;2.69;68.67;100735.53;5304424;28;20023;-68
2021/12/25 14:54:53;;;;;;;4.38;2.60;;;;;;;2.78;69.76;100736.81;5304762;28;20039;-68
2021/12/25 14:57:28;;;;;;;3.47;3.17;;;;;;;2.63;68.87;100753.75;5304075;28;20353;-69
2021/12/25 15:00:00;;;;;;;3.00;2.70;;;;;;;2.76;69.41;100749.91;5305992;28;20047;-68
2021/12/25 15:02:32;;;;;;;2.92;2.72;;;;;;;2.76;70.13;100755.41;5305295;28;20031;-68
2021/12/25 15:05:03;;;;;;;5.65;3.45;;;;;;;2.59;68.74;100753.41;5318205;28;20024;-68
2021/12/25 15:07:39;;;;;;;3.35;2.65;;;;;;;2.58;68.96;100751.75;5293412;28;20017;-68
2021/12/25 15:10:10;;;;;;;3.85;2.90;;;;;;;2.34;68.35;100745.41;5283379;28;20123;-68
2021/12/25 15:12:45;;;;;;;3.10;2.20;;;;;;;2.36;70.12;100747.94;5296798;28;20062;-68
2021/12/25 15:15:19;;;;;;;4.90;3.33;;;;;;;2.44;70.26;100754.94;5304764;28;20542;-68
2021/12/25 15:17:50;;;;;;;2.90;2.60;;;;;;;2.39;69.68;100755.66;5303588;28;20027;-67
2021/12/25 15:20:24;;;;;;;3.30;2.80;;;;;;;2.36;69.21;100759.72;5298054;28;20085;-67
2021/12/25 15:22:56;;;;;;;5.05;2.65;;;;;;;2.43;69.55;100759.59;5297234;28;20073;-67
2021/12/25 15:25:27;;;;;;;4.15;3.05;;;;;;;2.20;69.58;100767.78;5293922;28;20764;-67
2021/12/25 15:27:58;;;;;;;4.55;3.05;;;;;;;2.41;69.76;100769.94;5287272;28;20024;-67
2021/12/25 15:30:32;;;;;;;4.25;2.60;;;;;;;2.39;69.47;100772.09;5297055;28;20490;-67
2021/12/25 15:33:13;;;;;;;2.40;2.05;;;;;;;2.35;69.29;100762.66;5319768;28;20038;-67
2021/12/25 15:35:45;;;;;;;2.80;2.60;;;;;;;2.47;68.89;100763.50;5304249;28;20032;-68
2021/12/25 15:38:25;;;;;;;2.35;2.10;;;;;;;2.53;69.25;100765.31;5290031;28;20086;-67
2021/12/25 15:40:56;;;;;;;4.55;2.42;;;;;;;2.42;69.62;100762.56;5282330;28;20043;-67
2021/12/25 15:43:28;;;;;;;2.60;2.35;;;;;;;2.40;69.14;100768.25;5295582;28;20020;-67
2021/12/25 15:46:03;;;;;;;3.90;2.70;;;;;;;2.42;69.01;100771.59;5303553;28;20067;-67
2021/12/25 15:48:36;;;;;;;3.53;2.45;;;;;;;2.44;69.80;100766.72;5285960;28;20499;-68
2021/12/25 15:51:12;;;;;;;2.95;2.50;;;;;;;2.37;68.63;100760.53;5294930;28;20592;-67
2021/12/25 15:53:43;;;;;;;2.63;2.42;;;;;;;2.38;69.34;100770.44;5316895;28;20058;-67
2021/12/25 15:56:15;;;;;;;3.88;2.58;;;;;;;2.46;68.64;100764.59;5303867;28;20027;-67
2021/12/25 15:58:49;;;;;;;3.80;3.22;;;;;;;2.43;68.81;100762.34;5300618;28;20075;-67
2021/12/25 16:01:21;;;;;;;3.40;2.72;;;;;;;2.43;68.60;100759.59;5281592;28;20024;-67
2021/12/25 16:03:52;;;;;;;3.65;2.58;;;;;;;2.61;68.85;100767.69;5291491;28;20391;-67
2021/12/25 16:06:24;;;;;;;3.65;2.90;;;;;;;2.55;67.86;100760.41;5324775;28;20034;-67
2021/12/25 16:08:55;;;;;;;3.65;2.97;;;;;;;2.49;68.46;100768.75;5310106;28;20458;-67
2021/12/25 16:11:26;;;;;;;2.60;2.40;;;;;;;2.25;68.23;100778.84;5294126;28;20021;-67
2021/12/25 16:13:59;;;;;;;4.35;2.72;;;;;;;2.52;68.86;100769.09;5287729;28;20043;-66
2021/12/25 16:16:31;;;;;;;2.50;2.30;;;;;;;2.56;67.57;100769.47;5302527;28;20498;-67
2021/12/25 16:19:03;;;;;;;3.58;2.60;;;;;;;2.38;67.97;100767.69;5303198;28;20047;-66
2021/12/25 16:21:34;;;;;;;4.70;2.75;;;;;;;2.22;67.75;100768.38;5306971;28;20093;-67
2021/12/25 16:24:06;;;;;;;3.58;2.88;;;;;;;2.27;66.76;100768.50;5312757;28;20089;-67
2021/12/25 16:26:38;;;;;;;3.50;2.40;;;;;;;2.23;67.68;100768.16;5308528;28;20031;-67
2021/12/25 16:29:12;;;;;;;4.15;2.75;;;;;;;2.28;67.80;100764.72;5315387;28;20049;-67
2021/12/25 16:31:44;;;;;;;4.15;2.33;;;;;;;2.36;67.56;100773.41;5310934;28;20038;-67
2021/12/25 16:34:16;;;;;;;2.80;2.58;;;;;;;2.55;66.95;100765.06;5307553;28;20016;-67
2021/12/25 16:36:47;;;;;;;3.22;2.92;;;;;;;2.21;65.19;100775.75;5307133;28;20024;-67
2021/12/25 16:39:20;;;;;;;4.07;3.13;;;;;;;2.10;65.56;100771.94;5307830;28;20051;-67
2021/12/25 16:41:54;;;;;;;10.57;3.00;;;;;;;1.96;66.80;100775.94;5306872;28;20055;-67
2021/12/25 16:44:26;;;;;;;3.20;2.50;;;;;;;2.00;66.18;100779.91;5306530;28;20552;-67
2021/12/25 16:46:57;;;;;;;4.57;2.50;;;;;;;2.07;66.29;100775.16;5310511;28;20063;-68
2021/12/25 16:49:29;;;;;;;3.67;2.80;;;;;;;1.94;65.84;100778.94;5306912;28;20051;-67
2021/12/25 16:52:01;;;;;;;4.35;2.70;;;;;;;1.88;65.70;100770.81;5307497;28;20020;-67
2021/12/25 16:54:33;;;;;;;3.75;3.05;;;;;;;2.08;66.87;100770.50;5317849;28;20492;-67
2021/12/25 16:57:04;;;;;;;3.75;3.33;;;;;;;2.08;64.92;100776.81;5308219;28;20023;-67
2021/12/25 16:59:36;;;;;;;2.88;2.35;;;;;;;2.13;64.94;100781.59;5304183;28;20058;-67
2021/12/25 17:02:09;;;;;;;3.38;2.40;;;;;;;2.30;65.90;100787.19;5319302;28;20028;-68
2021/12/25 17:04:41;;;;;;;3.58;2.22;;;;;;;2.18;66.95;100784.44;5312718;28;20035;-67
2021/12/25 17:07:13;;;;;;;2.88;2.47;;;;;;;2.02;63.87;100787.84;5326322;28;20463;-66
2021/12/25 17:09:47;;;;;;;5.28;2.42;;;;;;;1.96;64.88;100792.34;5312774;28;20035;-67
2021/12/25 17:12:18;;;;;;;3.25;2.78;;;;;;;1.84;63.92;100777.81;5306755;28;21961;-67
2021/12/25 17:14:52;;;;;;;3.78;2.65;;;;;;;1.91;63.79;100784.84;5292031;28;20032;-67
2021/12/25 17:17:24;;;;;;;3.85;2.95;;;;;;;1.78;63.62;100771.38;5305700;28;20032;-66
2021/12/25 17:19:56;;;;;;;5.43;3.30;;;;;;;1.87;63.85;100771.91;5302192;28;20483;-66
2021/12/25 17:22:27;;;;;;;2.80;2.35;;;;;;;1.84;64.04;100767.72;5285703;28;20466;-67
2021/12/25 17:24:59;;;;;;;5.70;2.70;;;;;;;1.98;64.29;100770.25;5297079;28;20059;-67
2021/12/25 17:27:31;;;;;;;6.40;3.13;;;;;;;1.98;64.42;100768.34;5328075;28;20024;-66
2021/12/25 17:30:05;;;;;;;6.03;3.53;;;;;;;2.08;63.05;100779.53;5327550;28;20059;-67
